sensor_id;sensor_type;location;lat;lon;timestamp;temperature;humidity
56512;DHT22;42408;53.238;5.686;2023-04-27T00:01:49;4.10;99.90
56512;DHT22;42408;53.238;5.686;2023-04-27T00:04:15;4.10;99.90
56512;DHT22;42408;53.238;5.686;2023-04-27T00:06:41;4.20;99.90
56512;DHT22;42408;53.238;5.686;2023-04-27T00:09:07;4.10;99.90
56512;DHT22;42408;53.238;5.686;2023-04-27T00:11:33;4.10;99.90
56512;DHT22;42408;53.238;5.686;2023-04-27T00:13:59;4.10;99.90
56512;DHT22;42408;53.238;5.686;2023-04-27T00:16:25;4.10;99.90
56512;DHT22;42408;53.238;5.686;2023-04-27T00:18:50;4.10;99.90
56512;DHT22;42408;53.238;5.686;2023-04-27T00:21:17;4.00;99.90
56512;DHT22;42408;53.238;5.686;2023-04-27T00:23:43;4.10;99.90
56512;DHT22;42408;53.238;5.686;2023-04-27T00:26:08;4.00;99.90
56512;DHT22;42408;53.238;5.686;2023-04-27T00:28:34;4.00;99.90
56512;DHT22;42408;53.238;5.686;2023-04-27T00:30:59;4.00;99.90
56512;DHT22;42408;53.238;5.686;2023-04-27T00:33:28;4.00;99.90
56512;DHT22;42408;53.238;5.686;2023-04-27T00:35:53;4.00;99.90
56512;DHT22;42408;53.238;5.686;2023-04-27T00:38:19;4.00;99.90
56512;DHT22;42408;53.238;5.686;2023-04-27T00:40:45;4.10;99.90
56512;DHT22;42408;53.238;5.686;2023-04-27T00:43:10;4.10;99.90
56512;DHT22;42408;53.238;5.686;2023-04-27T00:45:40;4.10;99.90
56512;DHT22;42408;53.238;5.686;2023-04-27T00:48:07;4.00;99.90
56512;DHT22;42408;53.238;5.686;2023-04-27T00:50:33;4.00;99.90
56512;DHT22;42408;53.238;5.686;2023-04-27T00:53:00;4.10;99.90
56512;DHT22;42408;53.238;5.686;2023-04-27T00:55:26;4.10;99.90
56512;DHT22;42408;53.238;5.686;2023-04-27T00:57:51;4.00;99.90
56512;DHT22;42408;53.238;5.686;2023-04-27T01:00:17;4.00;99.90
56512;DHT22;42408;53.238;5.686;2023-04-27T01:02:43;3.90;99.90
56512;DHT22;42408;53.238;5.686;2023-04-27T01:05:09;4.00;99.90
56512;DHT22;42408;53.238;5.686;2023-04-27T01:07:38;4.00;99.90
56512;DHT22;42408;53.238;5.686;2023-04-27T01:10:05;4.00;99.90
56512;DHT22;42408;53.238;5.686;2023-04-27T01:12:32;3.90;99.90
56512;DHT22;42408;53.238;5.686;2023-04-27T01:14:58;3.90;99.90
56512;DHT22;42408;53.238;5.686;2023-04-27T01:17:23;3.90;99.90
56512;DHT22;42408;53.238;5.686;2023-04-27T01:19:49;4.00;99.90
56512;DHT22;42408;53.238;5.686;2023-04-27T01:22:16;4.00;99.90
56512;DHT22;42408;53.238;5.686;2023-04-27T01:24:42;4.00;99.90
56512;DHT22;42408;53.238;5.686;2023-04-27T01:27:07;4.00;99.90
56512;DHT22;42408;53.238;5.686;2023-04-27T01:29:33;4.00;99.90
56512;DHT22;42408;53.238;5.686;2023-04-27T01:31:59;4.10;99.90
56512;DHT22;42408;53.238;5.686;2023-04-27T01:34:25;4.10;99.90
56512;DHT22;42408;53.238;5.686;2023-04-27T01:36:50;4.10;99.90
56512;DHT22;42408;53.238;5.686;2023-04-27T01:39:16;4.10;99.90
56512;DHT22;42408;53.238;5.686;2023-04-27T01:41:42;4.10;99.90
56512;DHT22;42408;53.238;5.686;2023-04-27T01:44:07;4.20;99.90
56512;DHT22;42408;53.238;5.686;2023-04-27T01:46:33;4.20;99.90
56512;DHT22;42408;53.238;5.686;2023-04-27T01:48:59;4.20;99.90
56512;DHT22;42408;53.238;5.686;2023-04-27T01:51:24;4.20;99.90
56512;DHT22;42408;53.238;5.686;2023-04-27T01:53:50;4.30;99.90
56512;DHT22;42408;53.238;5.686;2023-04-27T01:56:16;4.30;99.90
56512;DHT22;42408;53.238;5.686;2023-04-27T01:58:41;4.30;99.90
56512;DHT22;42408;53.238;5.686;2023-04-27T02:01:07;4.30;99.90
56512;DHT22;42408;53.238;5.686;2023-04-27T02:03:32;4.30;99.90
56512;DHT22;42408;53.238;5.686;2023-04-27T02:05:58;4.30;99.90
56512;DHT22;42408;53.238;5.686;2023-04-27T02:08:24;4.30;99.90
56512;DHT22;42408;53.238;5.686;2023-04-27T02:10:49;4.30;99.90
56512;DHT22;42408;53.238;5.686;2023-04-27T02:13:15;4.40;99.90
56512;DHT22;42408;53.238;5.686;2023-04-27T02:15:41;4.30;99.90
56512;DHT22;42408;53.238;5.686;2023-04-27T02:18:06;4.40;99.90
56512;DHT22;42408;53.238;5.686;2023-04-27T02:20:32;4.40;99.90
56512;DHT22;42408;53.238;5.686;2023-04-27T02:22:58;4.40;99.90
56512;DHT22;42408;53.238;5.686;2023-04-27T02:25:23;4.40;99.90
56512;DHT22;42408;53.238;5.686;2023-04-27T02:27:49;4.40;99.90
56512;DHT22;42408;53.238;5.686;2023-04-27T02:30:15;4.40;99.90
56512;DHT22;42408;53.238;5.686;2023-04-27T02:32:41;4.50;99.90
56512;DHT22;42408;53.238;5.686;2023-04-27T02:35:07;4.50;99.90
56512;DHT22;42408;53.238;5.686;2023-04-27T02:37:34;4.50;99.90
56512;DHT22;42408;53.238;5.686;2023-04-27T02:39:59;4.50;99.90
56512;DHT22;42408;53.238;5.686;2023-04-27T02:42:25;4.50;99.90
56512;DHT22;42408;53.238;5.686;2023-04-27T02:44:51;4.50;99.90
56512;DHT22;42408;53.238;5.686;2023-04-27T02:47:17;4.50;99.90
56512;DHT22;42408;53.238;5.686;2023-04-27T02:49:42;4.50;99.90
56512;DHT22;42408;53.238;5.686;2023-04-27T02:52:08;4.50;99.90
56512;DHT22;42408;53.238;5.686;2023-04-27T02:54:34;4.40;99.90
56512;DHT22;42408;53.238;5.686;2023-04-27T02:57:00;4.40;99.90
56512;DHT22;42408;53.238;5.686;2023-04-27T02:59:26;4.40;99.90
56512;DHT22;42408;53.238;5.686;2023-04-27T03:01:52;4.50;99.90
56512;DHT22;42408;53.238;5.686;2023-04-27T03:04:17;4.40;99.90
56512;DHT22;42408;53.238;5.686;2023-04-27T03:06:43;4.40;99.90
56512;DHT22;42408;53.238;5.686;2023-04-27T03:09:09;4.40;99.90
56512;DHT22;42408;53.238;5.686;2023-04-27T03:11:35;4.40;99.90
56512;DHT22;42408;53.238;5.686;2023-04-27T03:14:02;4.30;99.90
56512;DHT22;42408;53.238;5.686;2023-04-27T03:16:30;4.30;99.90
56512;DHT22;42408;53.238;5.686;2023-04-27T03:18:55;4.30;99.90
56512;DHT22;42408;53.238;5.686;2023-04-27T03:21:21;4.20;99.90
56512;DHT22;42408;53.238;5.686;2023-04-27T03:23:47;4.20;99.90
56512;DHT22;42408;53.238;5.686;2023-04-27T03:26:13;4.10;99.90
56512;DHT22;42408;53.238;5.686;2023-04-27T03:28:39;4.10;99.90
56512;DHT22;42408;53.238;5.686;2023-04-27T03:31:06;4.00;99.90
56512;DHT22;42408;53.238;5.686;2023-04-27T03:33:32;4.00;99.90
56512;DHT22;42408;53.238;5.686;2023-04-27T03:35:59;4.70;99.90
56512;DHT22;42408;53.238;5.686;2023-04-27T03:38:25;3.80;99.90
56512;DHT22;42408;53.238;5.686;2023-04-27T03:40:52;3.80;99.90
56512;DHT22;42408;53.238;5.686;2023-04-27T03:43:18;3.80;99.90
56512;DHT22;42408;53.238;5.686;2023-04-27T03:45:44;3.70;99.90
56512;DHT22;42408;53.238;5.686;2023-04-27T03:48:10;3.60;99.90
56512;DHT22;42408;53.238;5.686;2023-04-27T03:50:35;3.60;99.90
56512;DHT22;42408;53.238;5.686;2023-04-27T03:53:01;3.60;99.90
56512;DHT22;42408;53.238;5.686;2023-04-27T03:55:27;3.60;99.90
56512;DHT22;42408;53.238;5.686;2023-04-27T03:57:52;3.50;99.90
56512;DHT22;42408;53.238;5.686;2023-04-27T04:00:18;3.40;99.90
56512;DHT22;42408;53.238;5.686;2023-04-27T04:02:44;3.40;99.90
56512;DHT22;42408;53.238;5.686;2023-04-27T04:05:10;3.40;99.90
56512;DHT22;42408;53.238;5.686;2023-04-27T04:07:38;3.80;99.90
56512;DHT22;42408;53.238;5.686;2023-04-27T04:10:06;3.30;99.90
56512;DHT22;42408;53.238;5.686;2023-04-27T04:12:32;3.30;99.90
56512;DHT22;42408;53.238;5.686;2023-04-27T04:14:58;4.20;99.90
56512;DHT22;42408;53.238;5.686;2023-04-27T04:17:23;3.30;99.90
56512;DHT22;42408;53.238;5.686;2023-04-27T04:19:49;3.20;99.90
56512;DHT22;42408;53.238;5.686;2023-04-27T04:22:15;3.20;99.90
56512;DHT22;42408;53.238;5.686;2023-04-27T04:24:41;3.20;99.90
56512;DHT22;42408;53.238;5.686;2023-04-27T04:27:06;3.20;99.90
56512;DHT22;42408;53.238;5.686;2023-04-27T04:29:32;3.20;99.90
56512;DHT22;42408;53.238;5.686;2023-04-27T04:31:58;3.20;99.90
56512;DHT22;42408;53.238;5.686;2023-04-27T04:34:24;3.20;99.90
56512;DHT22;42408;53.238;5.686;2023-04-27T04:36:49;3.20;99.90
56512;DHT22;42408;53.238;5.686;2023-04-27T04:39:18;3.20;99.90
56512;DHT22;42408;53.238;5.686;2023-04-27T04:41:47;3.20;99.90
56512;DHT22;42408;53.238;5.686;2023-04-27T04:44:16;3.10;99.90
56512;DHT22;42408;53.238;5.686;2023-04-27T04:46:41;3.20;99.90
56512;DHT22;42408;53.238;5.686;2023-04-27T04:49:08;3.20;99.90
56512;DHT22;42408;53.238;5.686;2023-04-27T04:51:34;3.20;99.90
56512;DHT22;42408;53.238;5.686;2023-04-27T04:54:00;3.20;99.90
56512;DHT22;42408;53.238;5.686;2023-04-27T04:56:25;3.30;99.90
56512;DHT22;42408;53.238;5.686;2023-04-27T04:58:51;3.30;99.90
56512;DHT22;42408;53.238;5.686;2023-04-27T05:01:16;3.30;99.90
56512;DHT22;42408;53.238;5.686;2023-04-27T05:03:42;3.30;99.90
56512;DHT22;42408;53.238;5.686;2023-04-27T05:06:08;3.40;99.90
56512;DHT22;42408;53.238;5.686;2023-04-27T05:08:34;3.40;99.90
56512;DHT22;42408;53.238;5.686;2023-04-27T05:11:00;3.50;99.90
56512;DHT22;42408;53.238;5.686;2023-04-27T05:13:26;3.50;99.90
56512;DHT22;42408;53.238;5.686;2023-04-27T05:15:52;3.60;99.90
56512;DHT22;42408;53.238;5.686;2023-04-27T05:18:18;3.70;99.90
56512;DHT22;42408;53.238;5.686;2023-04-27T05:20:44;3.80;99.90
56512;DHT22;42408;53.238;5.686;2023-04-27T05:23:10;4.00;99.90
56512;DHT22;42408;53.238;5.686;2023-04-27T05:25:36;4.10;99.90
56512;DHT22;42408;53.238;5.686;2023-04-27T05:28:07;4.30;99.90
56512;DHT22;42408;53.238;5.686;2023-04-27T05:30:33;4.50;99.90
56512;DHT22;42408;53.238;5.686;2023-04-27T05:32:59;4.60;99.90
56512;DHT22;42408;53.238;5.686;2023-04-27T05:35:25;4.70;99.90
56512;DHT22;42408;53.238;5.686;2023-04-27T05:37:50;4.80;99.90
56512;DHT22;42408;53.238;5.686;2023-04-27T05:40:16;4.90;99.90
56512;DHT22;42408;53.238;5.686;2023-04-27T05:42:44;5.00;99.90
56512;DHT22;42408;53.238;5.686;2023-04-27T05:45:10;5.10;99.90
56512;DHT22;42408;53.238;5.686;2023-04-27T05:47:36;5.10;99.90
56512;DHT22;42408;53.238;5.686;2023-04-27T05:50:02;5.20;99.90
56512;DHT22;42408;53.238;5.686;2023-04-27T05:52:28;5.30;99.90
56512;DHT22;42408;53.238;5.686;2023-04-27T05:54:56;5.40;99.90
56512;DHT22;42408;53.238;5.686;2023-04-27T05:57:23;5.40;99.90
56512;DHT22;42408;53.238;5.686;2023-04-27T05:59:49;5.50;99.90
56512;DHT22;42408;53.238;5.686;2023-04-27T06:02:14;5.60;99.90
56512;DHT22;42408;53.238;5.686;2023-04-27T06:04:41;5.60;99.90
56512;DHT22;42408;53.238;5.686;2023-04-27T06:07:07;5.70;99.90
56512;DHT22;42408;53.238;5.686;2023-04-27T06:09:34;5.90;99.90
56512;DHT22;42408;53.238;5.686;2023-04-27T06:11:59;6.30;99.90
56512;DHT22;42408;53.238;5.686;2023-04-27T06:14:26;7.10;99.90
56512;DHT22;42408;53.238;5.686;2023-04-27T06:16:52;7.70;99.90
56512;DHT22;42408;53.238;5.686;2023-04-27T06:19:18;8.50;99.90
56512;DHT22;42408;53.238;5.686;2023-04-27T06:21:43;9.50;99.90
56512;DHT22;42408;53.238;5.686;2023-04-27T06:24:09;10.70;99.90
56512;DHT22;42408;53.238;5.686;2023-04-27T06:26:35;11.60;99.90
56512;DHT22;42408;53.238;5.686;2023-04-27T06:29:01;12.10;99.90
56512;DHT22;42408;53.238;5.686;2023-04-27T06:31:28;12.60;99.90
56512;DHT22;42408;53.238;5.686;2023-04-27T06:33:54;13.40;99.90
56512;DHT22;42408;53.238;5.686;2023-04-27T06:36:20;14.10;99.90
56512;DHT22;42408;53.238;5.686;2023-04-27T06:38:46;14.80;99.90
56512;DHT22;42408;53.238;5.686;2023-04-27T06:41:11;15.30;99.90
56512;DHT22;42408;53.238;5.686;2023-04-27T06:43:37;15.70;99.90
56512;DHT22;42408;53.238;5.686;2023-04-27T06:46:03;15.90;99.90
56512;DHT22;42408;53.238;5.686;2023-04-27T06:48:29;16.10;99.90
56512;DHT22;42408;53.238;5.686;2023-04-27T06:50:55;16.30;99.70
56512;DHT22;42408;53.238;5.686;2023-04-27T06:53:21;16.30;99.20
56512;DHT22;42408;53.238;5.686;2023-04-27T06:55:47;16.40;98.80
56512;DHT22;42408;53.238;5.686;2023-04-27T06:58:12;16.50;97.80
56512;DHT22;42408;53.238;5.686;2023-04-27T07:00:38;16.90;97.50
56512;DHT22;42408;53.238;5.686;2023-04-27T07:03:04;17.00;96.70
56512;DHT22;42408;53.238;5.686;2023-04-27T07:05:29;17.00;96.00
56512;DHT22;42408;53.238;5.686;2023-04-27T07:07:55;17.30;96.40
56512;DHT22;42408;53.238;5.686;2023-04-27T07:10:21;17.40;95.80
56512;DHT22;42408;53.238;5.686;2023-04-27T07:12:46;17.20;95.40
56512;DHT22;42408;53.238;5.686;2023-04-27T07:15:12;17.10;95.90
56512;DHT22;42408;53.238;5.686;2023-04-27T07:17:37;17.10;94.00
56512;DHT22;42408;53.238;5.686;2023-04-27T07:20:04;17.20;94.80
56512;DHT22;42408;53.238;5.686;2023-04-27T07:22:31;16.90;93.90
56512;DHT22;42408;53.238;5.686;2023-04-27T07:24:57;17.00;95.80
56512;DHT22;42408;53.238;5.686;2023-04-27T07:27:23;16.70;95.00
56512;DHT22;42408;53.238;5.686;2023-04-27T07:29:49;16.60;94.40
56512;DHT22;42408;53.238;5.686;2023-04-27T07:32:14;16.30;94.60
56512;DHT22;42408;53.238;5.686;2023-04-27T07:34:40;16.50;97.80
56512;DHT22;42408;53.238;5.686;2023-04-27T07:37:06;16.60;95.00
56512;DHT22;42408;53.238;5.686;2023-04-27T07:39:32;16.90;95.80
56512;DHT22;42408;53.238;5.686;2023-04-27T07:41:58;16.90;94.90
56512;DHT22;42408;53.238;5.686;2023-04-27T07:44:24;16.80;92.90
56512;DHT22;42408;53.238;5.686;2023-04-27T07:46:50;16.90;94.20
56512;DHT22;42408;53.238;5.686;2023-04-27T07:49:18;16.80;93.80
56512;DHT22;42408;53.238;5.686;2023-04-27T07:51:44;16.70;93.10
56512;DHT22;42408;53.238;5.686;2023-04-27T07:54:10;16.70;94.10
56512;DHT22;42408;53.238;5.686;2023-04-27T07:56:39;16.80;95.00
56512;DHT22;42408;53.238;5.686;2023-04-27T07:59:04;16.70;94.40
56512;DHT22;42408;53.238;5.686;2023-04-27T08:01:30;16.80;93.50
56512;DHT22;42408;53.238;5.686;2023-04-27T08:03:55;16.70;93.30
56512;DHT22;42408;53.238;5.686;2023-04-27T08:06:21;16.50;91.70
56512;DHT22;42408;53.238;5.686;2023-04-27T08:08:47;16.40;92.50
56512;DHT22;42408;53.238;5.686;2023-04-27T08:11:12;16.40;94.10
56512;DHT22;42408;53.238;5.686;2023-04-27T08:13:38;16.50;94.90
56512;DHT22;42408;53.238;5.686;2023-04-27T08:16:04;16.50;93.10
56512;DHT22;42408;53.238;5.686;2023-04-27T08:18:30;16.40;94.20
56512;DHT22;42408;53.238;5.686;2023-04-27T08:20:55;16.40;95.40
56512;DHT22;42408;53.238;5.686;2023-04-27T08:23:21;16.50;94.70
56512;DHT22;42408;53.238;5.686;2023-04-27T08:25:46;16.60;93.70
56512;DHT22;42408;53.238;5.686;2023-04-27T08:28:13;16.60;93.70
56512;DHT22;42408;53.238;5.686;2023-04-27T08:30:41;16.40;93.70
56512;DHT22;42408;53.238;5.686;2023-04-27T08:33:07;16.30;95.30
56512;DHT22;42408;53.238;5.686;2023-04-27T08:35:33;16.40;93.60
56512;DHT22;42408;53.238;5.686;2023-04-27T08:37:58;16.30;93.50
56512;DHT22;42408;53.238;5.686;2023-04-27T08:40:24;16.30;94.20
56512;DHT22;42408;53.238;5.686;2023-04-27T08:42:55;16.20;94.50
56512;DHT22;42408;53.238;5.686;2023-04-27T08:45:22;16.20;95.00
56512;DHT22;42408;53.238;5.686;2023-04-27T08:47:48;16.20;94.90
56512;DHT22;42408;53.238;5.686;2023-04-27T08:50:14;16.20;95.30
56512;DHT22;42408;53.238;5.686;2023-04-27T08:52:46;16.20;95.50
56512;DHT22;42408;53.238;5.686;2023-04-27T08:55:12;16.10;96.00
56512;DHT22;42408;53.238;5.686;2023-04-27T08:57:39;16.20;94.70
56512;DHT22;42408;53.238;5.686;2023-04-27T09:00:06;16.10;95.50
56512;DHT22;42408;53.238;5.686;2023-04-27T09:02:47;16.00;94.60
56512;DHT22;42408;53.238;5.686;2023-04-27T09:05:17;15.90;96.10
56512;DHT22;42408;53.238;5.686;2023-04-27T09:07:54;15.80;95.10
56512;DHT22;42408;53.238;5.686;2023-04-27T09:10:19;15.70;98.00
56512;DHT22;42408;53.238;5.686;2023-04-27T09:12:57;15.70;95.60
56512;DHT22;42408;53.238;5.686;2023-04-27T09:15:24;15.80;96.70
56512;DHT22;42408;53.238;5.686;2023-04-27T09:17:54;15.90;95.50
56512;DHT22;42408;53.238;5.686;2023-04-27T09:20:21;15.90;95.50
56512;DHT22;42408;53.238;5.686;2023-04-27T09:22:51;16.00;97.10
56512;DHT22;42408;53.238;5.686;2023-04-27T09:25:29;16.00;96.80
56512;DHT22;42408;53.238;5.686;2023-04-27T09:27:57;16.10;97.60
56512;DHT22;42408;53.238;5.686;2023-04-27T09:30:24;16.10;96.00
56512;DHT22;42408;53.238;5.686;2023-04-27T09:32:55;15.90;95.90
56512;DHT22;42408;53.238;5.686;2023-04-27T09:35:26;16.10;97.20
56512;DHT22;42408;53.238;5.686;2023-04-27T09:37:53;16.20;96.10
56512;DHT22;42408;53.238;5.686;2023-04-27T09:40:26;16.30;95.00
56512;DHT22;42408;53.238;5.686;2023-04-27T09:43:00;16.30;96.10
56512;DHT22;42408;53.238;5.686;2023-04-27T09:45:26;16.40;95.10
56512;DHT22;42408;53.238;5.686;2023-04-27T09:47:52;16.50;95.90
56512;DHT22;42408;53.238;5.686;2023-04-27T09:50:18;16.50;93.50
56512;DHT22;42408;53.238;5.686;2023-04-27T09:52:46;16.60;92.90
56512;DHT22;42408;53.238;5.686;2023-04-27T09:55:20;16.30;94.20
56512;DHT22;42408;53.238;5.686;2023-04-27T10:03:19;16.50;92.50
56512;DHT22;42408;53.238;5.686;2023-04-27T10:08:28;16.70;92.90
56512;DHT22;42408;53.238;5.686;2023-04-27T10:10:54;16.70;92.40
56512;DHT22;42408;53.238;5.686;2023-04-27T10:13:22;16.60;93.50
56512;DHT22;42408;53.238;5.686;2023-04-27T10:15:48;16.50;93.50
56512;DHT22;42408;53.238;5.686;2023-04-27T10:18:24;16.50;93.10
56512;DHT22;42408;53.238;5.686;2023-04-27T10:20:51;16.40;92.80
56512;DHT22;42408;53.238;5.686;2023-04-27T10:23:24;16.20;92.60
56512;DHT22;42408;53.238;5.686;2023-04-27T10:25:50;16.00;94.20
56512;DHT22;42408;53.238;5.686;2023-04-27T10:28:17;16.00;94.40
56512;DHT22;42408;53.238;5.686;2023-04-27T10:30:44;15.80;92.60
56512;DHT22;42408;53.238;5.686;2023-04-27T10:33:15;16.00;93.30
56512;DHT22;42408;53.238;5.686;2023-04-27T10:35:57;16.10;93.70
56512;DHT22;42408;53.238;5.686;2023-04-27T10:38:28;16.20;91.60
56512;DHT22;42408;53.238;5.686;2023-04-27T10:40:59;16.10;92.10
56512;DHT22;42408;53.238;5.686;2023-04-27T10:43:28;16.00;93.30
56512;DHT22;42408;53.238;5.686;2023-04-27T10:45:54;16.00;92.80
56512;DHT22;42408;53.238;5.686;2023-04-27T10:48:31;16.10;96.00
56512;DHT22;42408;53.238;5.686;2023-04-27T10:50:57;16.10;97.20
56512;DHT22;42408;53.238;5.686;2023-04-27T10:53:23;16.20;95.10
56512;DHT22;42408;53.238;5.686;2023-04-27T10:55:54;16.10;94.10
56512;DHT22;42408;53.238;5.686;2023-04-27T10:58:23;16.10;93.50
56512;DHT22;42408;53.238;5.686;2023-04-27T11:00:49;16.00;95.70
56512;DHT22;42408;53.238;5.686;2023-04-27T11:05:44;15.90;93.80
56512;DHT22;42408;53.238;5.686;2023-04-27T11:08:12;16.00;94.00
56512;DHT22;42408;53.238;5.686;2023-04-27T11:10:49;16.00;95.10
56512;DHT22;42408;53.238;5.686;2023-04-27T11:13:20;16.00;93.30
56512;DHT22;42408;53.238;5.686;2023-04-27T11:15:57;15.90;94.20
56512;DHT22;42408;53.238;5.686;2023-04-27T11:18:25;16.00;91.80
56512;DHT22;42408;53.238;5.686;2023-04-27T11:20:53;16.00;92.20
56512;DHT22;42408;53.238;5.686;2023-04-27T11:23:23;16.10;92.40
56512;DHT22;42408;53.238;5.686;2023-04-27T11:25:50;16.20;90.00
56512;DHT22;42408;53.238;5.686;2023-04-27T11:28:19;16.00;87.80
56512;DHT22;42408;53.238;5.686;2023-04-27T11:30:46;15.90;89.70
56512;DHT22;42408;53.238;5.686;2023-04-27T11:33:12;15.70;90.20
56512;DHT22;42408;53.238;5.686;2023-04-27T11:35:37;15.60;89.80
56512;DHT22;42408;53.238;5.686;2023-04-27T11:38:04;15.50;90.20
56512;DHT22;42408;53.238;5.686;2023-04-27T11:40:29;15.40;91.70
56512;DHT22;42408;53.238;5.686;2023-04-27T11:42:59;15.30;92.30
56512;DHT22;42408;53.238;5.686;2023-04-27T11:45:29;15.40;94.00
56512;DHT22;42408;53.238;5.686;2023-04-27T11:47:57;15.40;93.30
56512;DHT22;42408;53.238;5.686;2023-04-27T11:50:23;15.50;92.00
56512;DHT22;42408;53.238;5.686;2023-04-27T11:52:50;15.70;92.60
56512;DHT22;42408;53.238;5.686;2023-04-27T11:55:19;15.70;92.00
56512;DHT22;42408;53.238;5.686;2023-04-27T11:57:45;15.80;91.90
56512;DHT22;42408;53.238;5.686;2023-04-27T12:00:11;15.80;91.80
56512;DHT22;42408;53.238;5.686;2023-04-27T12:02:39;15.80;92.80
56512;DHT22;42408;53.238;5.686;2023-04-27T12:05:06;15.80;92.80
56512;DHT22;42408;53.238;5.686;2023-04-27T12:07:34;15.80;92.50
56512;DHT22;42408;53.238;5.686;2023-04-27T12:09:59;15.70;95.10
56512;DHT22;42408;53.238;5.686;2023-04-27T12:12:25;15.80;95.80
56512;DHT22;42408;53.238;5.686;2023-04-27T12:14:51;15.80;91.90
56512;DHT22;42408;53.238;5.686;2023-04-27T12:17:18;15.80;91.10
56512;DHT22;42408;53.238;5.686;2023-04-27T12:19:44;16.10;92.30
56512;DHT22;42408;53.238;5.686;2023-04-27T12:22:10;16.20;91.20
56512;DHT22;42408;53.238;5.686;2023-04-27T12:24:35;16.40;91.40
56512;DHT22;42408;53.238;5.686;2023-04-27T12:27:02;16.50;91.70
56512;DHT22;42408;53.238;5.686;2023-04-27T12:29:29;16.40;91.10
56512;DHT22;42408;53.238;5.686;2023-04-27T12:31:57;16.30;89.70
56512;DHT22;42408;53.238;5.686;2023-04-27T12:34:23;16.10;91.60
56512;DHT22;42408;53.238;5.686;2023-04-27T12:36:48;16.00;93.80
56512;DHT22;42408;53.238;5.686;2023-04-27T12:39:17;15.80;93.00
56512;DHT22;42408;53.238;5.686;2023-04-27T12:41:47;15.80;93.60
56512;DHT22;42408;53.238;5.686;2023-04-27T12:44:14;15.60;95.20
56512;DHT22;42408;53.238;5.686;2023-04-27T12:46:41;15.60;92.80
56512;DHT22;42408;53.238;5.686;2023-04-27T12:49:07;15.50;91.40
56512;DHT22;42408;53.238;5.686;2023-04-27T12:51:33;15.30;89.40
56512;DHT22;42408;53.238;5.686;2023-04-27T12:54:00;15.20;93.60
56512;DHT22;42408;53.238;5.686;2023-04-27T12:56:27;15.20;94.90
56512;DHT22;42408;53.238;5.686;2023-04-27T12:58:53;15.20;94.80
56512;DHT22;42408;53.238;5.686;2023-04-27T13:01:20;15.10;94.80
56512;DHT22;42408;53.238;5.686;2023-04-27T13:03:51;15.00;94.70
56512;DHT22;42408;53.238;5.686;2023-04-27T13:06:18;15.00;97.10
56512;DHT22;42408;53.238;5.686;2023-04-27T13:08:43;15.00;95.60
56512;DHT22;42408;53.238;5.686;2023-04-27T13:11:10;15.10;94.20
56512;DHT22;42408;53.238;5.686;2023-04-27T13:13:36;15.10;94.10
56512;DHT22;42408;53.238;5.686;2023-04-27T13:16:02;15.10;96.00
56512;DHT22;42408;53.238;5.686;2023-04-27T13:18:28;15.10;96.60
56512;DHT22;42408;53.238;5.686;2023-04-27T13:20:57;15.20;97.20
56512;DHT22;42408;53.238;5.686;2023-04-27T13:23:23;15.20;96.50
56512;DHT22;42408;53.238;5.686;2023-04-27T13:25:51;15.30;94.50
56512;DHT22;42408;53.238;5.686;2023-04-27T13:28:16;15.40;92.50
56512;DHT22;42408;53.238;5.686;2023-04-27T13:30:42;15.40;92.50
56512;DHT22;42408;53.238;5.686;2023-04-27T13:33:10;15.40;93.90
56512;DHT22;42408;53.238;5.686;2023-04-27T13:35:37;15.50;93.50
56512;DHT22;42408;53.238;5.686;2023-04-27T13:38:02;15.50;93.10
56512;DHT22;42408;53.238;5.686;2023-04-27T13:40:28;15.50;92.30
56512;DHT22;42408;53.238;5.686;2023-04-27T13:42:54;15.50;90.00
56512;DHT22;42408;53.238;5.686;2023-04-27T13:45:20;15.40;95.70
56512;DHT22;42408;53.238;5.686;2023-04-27T13:47:45;15.40;94.20
56512;DHT22;42408;53.238;5.686;2023-04-27T13:50:12;15.40;94.60
56512;DHT22;42408;53.238;5.686;2023-04-27T13:52:38;15.50;94.50
56512;DHT22;42408;53.238;5.686;2023-04-27T13:55:06;15.50;92.70
56512;DHT22;42408;53.238;5.686;2023-04-27T13:57:32;15.40;91.40
56512;DHT22;42408;53.238;5.686;2023-04-27T13:59:57;15.40;92.10
56512;DHT22;42408;53.238;5.686;2023-04-27T14:02:25;15.40;91.80
56512;DHT22;42408;53.238;5.686;2023-04-27T14:04:52;15.30;93.80
56512;DHT22;42408;53.238;5.686;2023-04-27T14:07:18;15.40;92.10
56512;DHT22;42408;53.238;5.686;2023-04-27T14:09:44;15.40;92.30
56512;DHT22;42408;53.238;5.686;2023-04-27T14:12:10;15.60;93.70
56512;DHT22;42408;53.238;5.686;2023-04-27T14:14:35;15.60;93.30
56512;DHT22;42408;53.238;5.686;2023-04-27T14:17:02;15.70;93.30
56512;DHT22;42408;53.238;5.686;2023-04-27T14:19:27;15.60;91.50
56512;DHT22;42408;53.238;5.686;2023-04-27T14:21:53;15.70;92.60
56512;DHT22;42408;53.238;5.686;2023-04-27T14:24:20;15.60;91.30
56512;DHT22;42408;53.238;5.686;2023-04-27T14:26:47;15.50;92.20
56512;DHT22;42408;53.238;5.686;2023-04-27T14:29:14;15.40;95.00
56512;DHT22;42408;53.238;5.686;2023-04-27T14:31:40;15.40;95.40
56512;DHT22;42408;53.238;5.686;2023-04-27T14:34:06;15.40;97.00
56512;DHT22;42408;53.238;5.686;2023-04-27T14:36:32;15.40;95.00
56512;DHT22;42408;53.238;5.686;2023-04-27T14:38:59;15.30;94.10
56512;DHT22;42408;53.238;5.686;2023-04-27T14:41:26;15.20;94.20
56512;DHT22;42408;53.238;5.686;2023-04-27T14:43:51;15.00;93.30
56512;DHT22;42408;53.238;5.686;2023-04-27T14:46:17;15.20;95.90
56512;DHT22;42408;53.238;5.686;2023-04-27T14:48:46;15.00;94.20
56512;DHT22;42408;53.238;5.686;2023-04-27T14:51:13;15.00;94.30
56512;DHT22;42408;53.238;5.686;2023-04-27T14:53:38;14.90;93.90
56512;DHT22;42408;53.238;5.686;2023-04-27T14:56:04;14.70;95.30
56512;DHT22;42408;53.238;5.686;2023-04-27T14:58:30;14.60;95.50
56512;DHT22;42408;53.238;5.686;2023-04-27T15:00:59;14.60;97.10
56512;DHT22;42408;53.238;5.686;2023-04-27T15:03:29;14.60;95.30
56512;DHT22;42408;53.238;5.686;2023-04-27T15:05:57;14.40;96.50
56512;DHT22;42408;53.238;5.686;2023-04-27T15:08:23;14.20;97.20
56512;DHT22;42408;53.238;5.686;2023-04-27T15:10:48;14.20;98.70
56512;DHT22;42408;53.238;5.686;2023-04-27T15:13:14;14.00;98.80
56512;DHT22;42408;53.238;5.686;2023-04-27T15:15:40;13.80;99.90
56512;DHT22;42408;53.238;5.686;2023-04-27T15:18:09;13.60;99.90
56512;DHT22;42408;53.238;5.686;2023-04-27T15:20:35;13.50;99.90
56512;DHT22;42408;53.238;5.686;2023-04-27T15:23:01;13.40;99.90
56512;DHT22;42408;53.238;5.686;2023-04-27T15:25:27;13.30;99.90
56512;DHT22;42408;53.238;5.686;2023-04-27T15:27:52;13.20;99.90
56512;DHT22;42408;53.238;5.686;2023-04-27T15:30:18;13.20;99.90
56512;DHT22;42408;53.238;5.686;2023-04-27T15:32:44;13.00;99.90
56512;DHT22;42408;53.238;5.686;2023-04-27T15:35:09;13.00;99.90
56512;DHT22;42408;53.238;5.686;2023-04-27T15:37:36;12.80;99.90
56512;DHT22;42408;53.238;5.686;2023-04-27T15:40:05;12.70;99.90
56512;DHT22;42408;53.238;5.686;2023-04-27T15:42:34;12.70;99.90
56512;DHT22;42408;53.238;5.686;2023-04-27T15:45:00;12.60;99.90